Terminal Aerodrome Forecast
Issued by NWS Boise, ID

Home | Current Version | Previous Version | Text Only | Print | Product List | Glossary On
Versions: 1 2 3 4 5 6 7 8 9 10 11 12 13 14 15 16 17 18 19 20 21 22 23 24 25 26 27 28 29 30
000
FTUS45 KBOI 250540
TAFBNO
TAF
KBNO 250540Z 2506/2606 20006KT P6SM SCT150
     FM250700 VRB03KT 1/2SM FZFG OVC002
     FM251800 07011KT P6SM BKN100
      TEMPO 2519/2521 -SHRA OVC070=

USA.gov is the U.S. government's official web portal to all federal, state and local government web resources and services.